LELL

Details ICAO LELL (QSA)
Name Sabadell
Region Spain
Timezone Europe/Madrid (UTC+1.0)
Plans Departing 84
Arriving 26
Stats Elevation 465 ft / 142 m (AMSL)
Location 41.520977° 2.104912°
Runways 1
Magnetic Variation 0.822° E
Sunrise 2017-12-18 07:14:24 UTC / 2017-12-18 08:14:24 Local
Sunset 2017-12-18 16:24:41 UTC / 2017-12-18 17:24:41 Local
Advertisement - Login to hide

Runways

ID Width Length Bearing (true) Bearing (mag) Surface Threshold Offset Overrun Length
13 98 ft / 30 m 2,956 ft / 901 m 127.50° 126.68° Asphalt 0 ft / 0 m 0 ft / 0 m
31 98 ft / 30 m 2,956 ft / 901 m 307.50° 306.68° Asphalt 0 ft / 0 m 0 ft / 0 m

Map

Weather


0- 5 10 15 20 25 30 35+ Temperature / ° C

Clouds and Precipitation
Forecast for 2017-12-19 00:00 UTC. Updated an hour ago

Ground ~20,000 ft ~40,000 ft Winds

METAR

LELL 182230Z AUTO 29004KT 9999 SCT057 04/03 Q1024

TAF

TAF LELL 181400Z 1815/1915 27009KT 9999 FEW030 TX12/1913Z TN00/1906Z BECMG 1817/1820 VRB04KT PROB40 TEMPO 1820/1902 3000 RA BKN030

Frequencies

Ground 121.90 MHz TWR
Tower 120.80 MHz TWR
Warning: Do not use this data for real-world aviation or navigation. No guarantee of current accuracy is given.